AGROMETEOROLOŠKI PORTAL
Vinorodna pokrajina

Temelj dobrega kmetovanja.

Pregled podatkov za lokacijo Moškanjci, meteorološka postaja 517697

Pregled senzorjev na lokaciji

ID Ime Zadnja
vrednost
Datum in čas
meritve
(lokalni čas)
Tip
senzorja
7418 Sončno sevanje (W/m2) 0 W/m2 15.4.2024 02:30 Pyranometer SP-Lite
7422 Omočenost lista (1,5 m) (U) 0 U 15.4.2024 02:30 A730WET
7647 Padavine (mm) 0 mm 15.4.2024 02:30 Generic 0.1 mm
7409 Relativna zračna vlaga (2 m) (%RH) 56 %RH 15.4.2024 02:30 50YA
7408 Temperatura (2 m) (°C) 16,2 °C 15.4.2024 02:30 50YA
7415 Smer vetra (3 m) (°) 224 ° 15.4.2024 02:30 Generic 0 - 360
7414 Hitrost vetra (3 m) (km/h) 8 km/h 15.4.2024 02:30 Pro10/2 270 km/h

Pregled podatkov zadnjih 24 ur

Zap.
št.
Datum in čas
(lokalni čas)
Moškanjci
Sončno
sevanje
Omočenost
lista
(1,5
m)
Padavine Relativna
zračna
vlaga
(2
m)
Temperatura
(2
m)
Smer
vetra
(3
m)
Hitrost
vetra
(3
m)
1 15.4.2024 02:30 0 0 0 56,3 16,2 224 8,3
2 15.4.2024 02:00 0 0 0 48,2 18,2 205,6 12
3 15.4.2024 01:30 0 0 0 49,2 17,8 205,3 9
4 15.4.2024 01:00 0 0 0 47,9 18,3 193,5 10,5
5 15.4.2024 00:30 0 0 0 47,4 18,7 190,4 10,1
6 15.4.2024 00:00 0 0 0 48,6 18,6 188,2 11,5
7 14.4.2024 23:30 0 0 0 48,6 19 188,5 9,9
8 14.4.2024 23:00 0 0 0 48,1 19,5 189,7 12,6
9 14.4.2024 22:30 0 0 0 48,2 19,6 194,7 10,5
10 14.4.2024 22:00 0 0 0 52,4 18,6 194,3 9,5
11 14.4.2024 21:30 0 0 0 49,2 19,8 187,2 9,4
12 14.4.2024 21:00 0 0 0 47,4 20,2 191,9 9,1
13 14.4.2024 20:30 0 0 0 42,2 21,7 193 9,4
14 14.4.2024 20:00 0,6 0 0 44,3 22,1 184 8,1
15 14.4.2024 19:30 27,6 0 0 43,1 23,2 194,5 9,3
16 14.4.2024 19:00 75,5 0 0 40,1 25,3 186 10,6
17 14.4.2024 18:30 186,7 0 0 37,3 27,2 188,7 11,3
18 14.4.2024 18:00 279,4 0 0 35,1 28,2 192,7 14
19 14.4.2024 17:30 345,9 0 0 36,8 28,6 188,2 13,7
20 14.4.2024 17:00 440,8 0 0 37,6 29 195,3 13,3
21 14.4.2024 16:30 489,4 0 0 35,8 29 197,4 16,2
22 14.4.2024 16:00 581,8 0 0 35,5 29 189,5 17,3
23 14.4.2024 15:30 641,2 0 0 38,1 28,8 192,4 16,3
24 14.4.2024 15:00 687,9 0 0 43 28,6 177,8 12
25 14.4.2024 14:30 731,3 0 0 44,9 28,1 196,4 12,2
26 14.4.2024 14:00 762,8 0 0 45 27,6 210,9 12,7
27 14.4.2024 13:30 785,7 0 0 44,2 27,2 217,1 14,7
28 14.4.2024 13:00 783,9 0 0 46,7 26,6 213,7 11,7
29 14.4.2024 12:30 775,2 0 0 48,5 26 215,6 10,6
30 14.4.2024 12:00 726,2 0 0 50,1 25,5 184,9 11,4
31 14.4.2024 11:30 654 0 0 52,3 24,7 208 10,5
32 14.4.2024 11:00 688,9 0 0 54,5 24 207,2 7,3
33 14.4.2024 10:30 604,6 0 0 60,6 22,5 235,4 6,1
34 14.4.2024 10:00 510 0 0 63,5 20,7 228,6 4,2
35 14.4.2024 09:30 407,8 0 0 68 19,1 241,5 4,5
36 14.4.2024 09:00 353,9 0 0 76,4 16,7 270,2 6,4
37 14.4.2024 08:30 286,9 2 0 82,8 14,5 270,9 5,4
38 14.4.2024 08:00 180,3 10 0 89,2 12,5 277,8 3,4
39 14.4.2024 07:30 138,7 10 0 94,5 10,3 225,1 4
40 14.4.2024 07:00 67,2 10 0 95,4 8,4 238,5 4,8
41 14.4.2024 06:30 9,1 10 0 95,1 8,4 271,4 2,1
42 14.4.2024 06:00 0 10 0 94,5 8,4 224,2 2,4
43 14.4.2024 05:30 0 10 0 94 8,5 231,3 3,6
44 14.4.2024 05:00 0 10 0 93,4 8,7 261,4 4,8
45 14.4.2024 04:30 0 10 0 92,8 8,8 178,8 3,3
46 14.4.2024 04:00 0 10 0 93,2 9,9 262,4 3,8